Time;durP1;ratioP1;P1;durP2;ratioP2;P2;SDS_P1;SDS_P2;PMS_P1;PMS_P2;Temp;Humidity;BMP_temperature;BMP_pressure;BME280_temperature;BME280_humidity;BME280_pressure;Samples;Min_cycle;Max_cycle;Signal;HPM_P1;HPM_P2
2023/08/17 00:02:14;;;;;;;;;36.60;33.80;;;;;18.74;75.71;99444.75;5100422;28;8894;-76
2023/08/17 00:04:44;;;;;;;;;35.80;33.00;;;;;18.46;76.52;99440.09;5075166;28;9548;-77
2023/08/17 00:07:13;;;;;;;;;36.40;33.60;;;;;18.57;76.43;99431.53;5074442;28;8955;-77
2023/08/17 00:09:42;;;;;;;;;35.00;33.00;;;;;18.71;75.61;99444.94;5097098;28;8928;-77
2023/08/17 00:12:11;;;;;;;;;36.80;33.00;;;;;18.93;74.62;99456.13;5091856;28;8981;-75
2023/08/17 00:14:40;;;;;;;;;34.40;32.20;;;;;19.09;74.14;99444.56;5096872;28;8948;-77
2023/08/17 00:17:09;;;;;;;;;34.40;32.20;;;;;18.99;74.35;99446.03;5088457;28;8878;-76
2023/08/17 00:19:38;;;;;;;;;37.60;34.60;;;;;18.58;76.07;99444.75;5089528;28;8845;-76
2023/08/17 00:22:08;;;;;;;;;28.80;26.80;;;;;18.29;78.19;99449.91;5022404;28;8930;-76
2023/08/17 00:24:37;;;;;;;;;35.80;33.20;;;;;18.40;77.70;99451.09;5100770;28;8934;-76
2023/08/17 00:27:06;;;;;;;;;35.40;32.00;;;;;18.56;76.77;99446.66;5061738;28;8865;-77
2023/08/17 00:29:35;;;;;;;;;35.40;33.40;;;;;18.60;76.27;99447.34;5089254;28;8840;-76
2023/08/17 00:32:05;;;;;;;;;36.40;32.00;;;;;18.61;76.08;99452.59;5092350;28;8843;-77
2023/08/17 00:34:33;;;;;;;;;34.40;31.20;;;;;18.87;75.72;99453.78;5091565;28;8943;-76
2023/08/17 00:37:03;;;;;;;;;37.20;33.60;;;;;19.08;74.82;99458.81;5091824;28;8863;-77
2023/08/17 00:39:33;;;;;;;;;37.40;33.40;;;;;19.30;73.95;99450.44;5091715;28;8843;-77
2023/08/17 00:42:02;;;;;;;;;37.00;34.00;;;;;19.45;72.90;99452.22;5109726;28;8897;-75
2023/08/17 00:44:30;;;;;;;;;35.40;32.40;;;;;19.50;72.47;99442.13;5107812;28;8844;-76
2023/08/17 00:47:00;;;;;;;;;29.40;28.20;;;;;19.37;72.50;99443.81;5066096;28;8894;-76
2023/08/17 00:49:28;;;;;;;;;37.80;33.80;;;;;19.49;71.93;99443.06;5066255;28;8883;-79
2023/08/17 00:51:58;;;;;;;;;37.00;33.80;;;;;19.59;72.26;99445.22;5066486;28;8856;-76
2023/08/17 00:54:30;;;;;;;;;35.40;32.80;;;;;19.72;71.94;99443.53;5066184;28;8840;-74
2023/08/17 00:57:01;;;;;;;;;37.00;34.00;;;;;19.81;71.66;99447.47;5049441;28;8872;-75
2023/08/17 00:59:30;;;;;;;;;35.80;32.80;;;;;19.89;71.48;99446.00;5044748;28;8862;-75
2023/08/17 01:02:06;;;;;;;;;40.20;35.20;;;;;19.95;71.07;99442.13;5046449;28;8854;-74
2023/08/17 01:04:36;;;;;;;;;35.60;33.40;;;;;20.02;70.85;99446.13;5038600;28;8872;-76
2023/08/17 01:07:05;;;;;;;;;36.00;32.80;;;;;20.07;70.10;99448.53;5029173;28;8846;-75
2023/08/17 01:09:35;;;;;;;;;39.00;34.60;;;;;20.10;70.37;99441.19;5029506;28;8862;-76
2023/08/17 01:12:26;;;;;;;;;37.20;33.00;;;;;20.23;69.87;99443.94;5029521;28;8968;-75
2023/08/17 01:15:06;;;;;;;;;40.00;34.80;;;;;20.25;69.79;99436.72;5051704;28;8862;-76
2023/08/17 01:17:43;;;;;;;;;34.20;32.60;;;;;20.30;69.74;99441.78;5016274;28;8855;-75
2023/08/17 01:20:15;;;;;;;;;35.20;33.00;;;;;20.28;69.56;99438.34;5049939;28;8982;-75
2023/08/17 01:22:49;;;;;;;;;32.40;30.20;;;;;20.32;69.22;99436.34;5032700;28;8940;-77
2023/08/17 01:25:19;;;;;;;;;32.20;27.80;;;;;20.36;69.06;99435.19;5065973;28;8859;-75
2023/08/17 01:27:49;;;;;;;;;34.40;31.80;;;;;20.40;69.00;99439.38;5032648;28;8863;-74
2023/08/17 01:30:19;;;;;;;;;33.60;31.80;;;;;20.35;68.86;99434.34;5049098;28;8872;-76
2023/08/17 01:32:54;;;;;;;;;32.00;30.60;;;;;20.24;68.48;99437.69;5076061;28;8884;-75
2023/08/17 01:35:31;;;;;;;;;35.40;31.60;;;;;20.17;69.31;99438.97;5068929;28;8993;-75
2023/08/17 01:38:06;;;;;;;;;33.60;31.60;;;;;20.22;69.09;99438.72;5052365;28;8859;-74
2023/08/17 01:40:37;;;;;;;;;34.80;32.20;;;;;20.26;68.53;99433.09;5065159;28;8852;-77
2023/08/17 01:43:07;;;;;;;;;38.20;33.00;;;;;20.32;68.41;99439.00;5064478;28;9006;-77
2023/08/17 01:45:36;;;;;;;;;32.60;30.60;;;;;20.33;67.98;99430.91;5048827;28;8874;-77
2023/08/17 01:48:06;;;;;;;;;36.00;33.20;;;;;20.26;68.10;99426.91;5014177;28;8994;-77
2023/08/17 01:50:35;;;;;;;;;30.20;29.40;;;;;20.32;67.93;99423.00;5028981;28;8890;-76
2023/08/17 01:53:04;;;;;;;;;35.60;32.80;;;;;20.32;67.87;99429.19;5029246;28;8870;-75
2023/08/17 01:55:35;;;;;;;;;37.60;34.60;;;;;20.29;68.43;99430.25;4996541;28;8858;-74
2023/08/17 01:58:05;;;;;;;;;37.80;34.00;;;;;20.29;68.15;99432.03;5012367;28;9608;-75
2023/08/17 02:00:34;;;;;;;;;41.00;35.60;;;;;20.40;67.16;99429.53;5028668;28;8897;-75
2023/08/17 02:03:03;;;;;;;;;40.25;36.25;;;;;20.43;67.10;99426.69;5044040;28;8951;-76
2023/08/17 02:05:32;;;;;;;;;47.25;38.25;;;;;20.46;66.93;99421.16;5031976;28;8846;-75
2023/08/17 02:08:00;;;;;;;;;52.00;41.25;;;;;20.49;67.03;99418.28;5041822;28;8870;-75
2023/08/17 02:10:29;;;;;;;;;49.25;41.00;;;;;20.43;67.26;99425.84;5035061;28;8903;-75
2023/08/17 02:12:58;;;;;;;;;51.50;41.50;;;;;20.43;67.35;99420.50;5026112;28;8848;-75
2023/08/17 02:15:45;;;;;;;;;50.50;41.00;;;;;20.46;66.80;99422.94;5009029;28;8864;-76
2023/08/17 02:18:15;;;;;;;;;50.00;40.50;;;;;20.46;66.87;99425.63;4997248;28;8895;-76
2023/08/17 02:20:43;;;;;;;;;52.25;43.00;;;;;20.46;66.92;99418.50;5053319;28;8956;-76
2023/08/17 02:23:12;;;;;;;;;54.00;43.00;;;;;20.41;66.80;99419.75;5087791;28;8830;-75
2023/08/17 02:25:41;;;;;;;;;58.00;45.75;;;;;20.42;67.02;99424.94;5070345;28;8869;-76
2023/08/17 02:28:10;;;;;;;;;52.00;41.25;;;;;20.42;66.95;99424.94;5070241;28;8856;-76
2023/08/17 02:30:39;;;;;;;;;50.75;40.25;;;;;20.41;67.21;99417.06;5088114;28;8884;-76
2023/08/17 02:33:10;;;;;;;;;49.25;41.25;;;;;20.41;67.12;99417.06;5087640;28;8882;-76
2023/08/17 02:35:39;;;;;;;;;52.50;43.00;;;;;20.29;67.63;99424.91;5074207;28;8860;-75
2023/08/17 02:38:08;;;;;;;;;48.00;40.00;;;;;20.22;67.15;99428.03;5035889;28;8874;-77
2023/08/17 02:40:36;;;;;;;;;49.50;40.00;;;;;20.18;66.85;99427.34;5087520;28;9626;-77
2023/08/17 02:43:05;;;;;;;;;51.00;42.00;;;;;20.10;67.77;99434.97;5087676;28;8843;-76
2023/08/17 02:45:34;;;;;;;;;53.00;44.00;;;;;20.03;67.79;99436.34;5090010;28;8950;-76
2023/08/17 02:48:05;;;;;;;;;43.50;36.75;;;;;19.99;67.72;99427.66;5089854;28;8886;-76
2023/08/17 02:50:35;;;;;;;;;48.75;40.25;;;;;19.95;68.24;99431.44;5073015;28;8859;-75
2023/08/17 02:53:04;;;;;;;;;46.25;39.00;;;;;19.92;67.77;99428.97;5088929;28;8840;-77
2023/08/17 02:55:33;;;;;;;;;46.25;37.00;;;;;19.93;68.31;99430.69;5110716;28;8860;-74
2023/08/17 02:58:02;;;;;;;;;45.00;38.75;;;;;19.91;68.39;99429.91;5112328;28;8859;-75
2023/08/17 03:00:31;;;;;;;;;45.00;37.25;;;;;19.87;68.07;99428.41;5103457;28;8847;-75
2023/08/17 03:03:00;;;;;;;;;49.50;40.50;;;;;19.85;68.17;99431.16;5068923;28;8862;-75
2023/08/17 03:05:29;;;;;;;;;47.00;39.50;;;;;19.85;67.92;99424.97;5077552;28;8847;-75
2023/08/17 03:07:59;;;;;;;;;38.60;33.80;;;;;19.84;68.12;99423.25;5107768;28;8962;-73
2023/08/17 03:10:27;;;;;;;;;32.40;30.20;;;;;19.85;68.50;99427.63;5111301;28;9613;-75
2023/08/17 03:12:56;;;;;;;;;40.20;34.40;;;;;19.83;68.08;99424.22;5111016;28;8903;-76
2023/08/17 03:15:25;;;;;;;;;44.20;38.00;;;;;19.87;67.55;99421.25;5111251;28;8886;-75
2023/08/17 03:17:54;;;;;;;;;37.80;33.60;;;;;19.76;67.96;99423.72;5042748;28;8863;-76
2023/08/17 03:20:23;;;;;;;;;43.80;36.80;;;;;19.77;67.96;99425.44;5091709;28;9577;-75
2023/08/17 03:22:52;;;;;;;;;38.40;34.20;;;;;19.83;67.86;99432.22;5072960;28;8849;-75
2023/08/17 03:25:22;;;;;;;;;38.40;32.40;;;;;19.90;68.15;99422.88;5084028;28;8872;-77
2023/08/17 03:27:51;;;;;;;;;41.00;35.80;;;;;19.91;68.26;99419.25;5072700;28;8846;-77
2023/08/17 03:30:21;;;;;;;;;44.60;35.80;;;;;20.00;67.89;99416.00;5038717;28;8861;-76
2023/08/17 03:32:50;;;;;;;;;41.60;35.20;;;;;20.11;67.51;99423.34;5088670;28;8847;-76
2023/08/17 03:35:19;;;;;;;;;44.80;37.80;;;;;20.13;67.33;99424.13;5041097;28;8864;-75
2023/08/17 03:37:48;;;;;;;;;47.00;39.25;;;;;20.22;67.10;99428.88;5111079;28;8859;-77
2023/08/17 03:40:17;;;;;;;;;40.75;35.75;;;;;20.26;66.71;99417.06;5093078;28;8860;-76
2023/08/17 03:42:47;;;;;;;;;44.75;38.25;;;;;20.20;66.63;99428.13;5091510;28;8842;-77
2023/08/17 03:45:16;;;;;;;;;45.00;38.50;;;;;20.25;66.77;99423.34;5058782;28;9637;-78
2023/08/17 03:47:45;;;;;;;;;39.25;33.00;;;;;20.25;66.40;99431.38;5077946;28;8838;-77
2023/08/17 03:50:14;;;;;;;;;44.50;37.50;;;;;20.19;66.03;99425.53;5071798;28;9660;-76
2023/08/17 03:52:43;;;;;;;;;43.75;36.00;;;;;20.08;65.68;99419.09;5072649;28;8818;-76
2023/08/17 03:55:12;;;;;;;;;58.25;47.50;;;;;20.10;65.63;99427.84;5075502;28;8861;-77
2023/08/17 03:57:41;;;;;;;;;59.50;48.75;;;;;20.02;65.57;99430.13;5076729;28;8926;-76
2023/08/17 04:00:12;;;;;;;;;48.00;39.75;;;;;20.00;65.96;99428.50;5038925;28;8862;-75
2023/08/17 04:02:41;;;;;;;;;37.00;34.40;;;;;19.94;66.17;99436.91;5105933;28;8857;-76
2023/08/17 04:05:14;;;;;;;;;41.50;36.00;;;;;19.97;65.96;99442.91;5091096;28;8855;-76
2023/08/17 04:07:44;;;;;;;;;42.50;36.50;;;;;19.93;65.72;99445.84;5092238;28;8824;-75
2023/08/17 04:10:12;;;;;;;;;40.25;35.50;;;;;19.93;65.86;99451.19;5085787;28;8847;-76
2023/08/17 04:12:41;;;;;;;;;44.40;36.40;;;;;19.93;65.43;99461.84;5072224;28;8845;-76
2023/08/17 04:15:11;;;;;;;;;41.00;36.00;;;;;19.76;65.82;99457.53;5102628;28;8966;-76
2023/08/17 04:17:40;;;;;;;;;41.00;36.00;;;;;19.67;66.88;99464.31;5074485;28;8847;-77
2023/08/17 04:20:11;;;;;;;;;39.50;35.75;;;;;18.94;68.80;99460.47;5092491;28;8844;-75
2023/08/17 04:22:40;;;;;;;;;46.25;38.00;;;;;18.75;69.94;99457.13;5092533;28;8843;-75
2023/08/17 04:25:08;;;;;;;;;40.75;35.25;;;;;18.88;69.53;99455.50;5075247;28;8871;-71
2023/08/17 04:27:37;;;;;;;;;38.40;34.40;;;;;19.12;69.20;99463.91;5077540;28;8856;-72
2023/08/17 04:30:08;;;;;;;;;36.00;34.00;;;;;19.36;68.70;99463.41;5020351;28;8829;-72
2023/08/17 04:32:52;;;;;;;;;58.25;47.25;;;;;19.49;68.64;99460.88;5088226;28;8866;-70
2023/08/17 04:35:21;;;;;;;;;36.40;33.60;;;;;19.64;67.75;99452.00;5087877;28;8868;-71
2023/08/17 04:37:50;;;;;;;;;36.80;33.80;;;;;19.74;67.27;99454.97;5036271;28;8859;-68
2023/08/17 04:40:19;;;;;;;;;43.60;36.40;;;;;19.83;66.53;99456.22;5010039;28;8894;-72
2023/08/17 04:42:50;;;;;;;;;36.00;33.80;;;;;19.85;66.15;99463.16;5039083;28;8967;-71
2023/08/17 04:45:19;;;;;;;;;32.40;31.20;;;;;19.93;65.78;99469.84;5005148;28;8911;-71
2023/08/17 04:47:51;;;;;;;;;38.60;34.00;;;;;19.94;66.05;99460.91;4998651;28;8891;-71
2023/08/17 04:50:19;;;;;;;;;33.60;30.80;;;;;20.03;65.88;99465.69;4998664;28;8923;-69
2023/08/17 04:52:49;;;;;;;;;37.00;34.20;;;;;20.09;65.10;99473.31;4990249;28;8875;-69
2023/08/17 04:55:18;;;;;;;;;45.00;39.25;;;;;20.12;65.17;99470.41;4990172;28;8859;-71
2023/08/17 04:57:47;;;;;;;;;43.75;36.50;;;;;20.01;64.81;99476.44;4990034;28;8875;-71
2023/08/17 05:00:17;;;;;;;;;35.00;32.60;;;;;19.99;65.70;99466.78;4985667;28;8958;-71
2023/08/17 05:02:46;;;;;;;;;51.75;42.75;;;;;20.06;65.27;99473.47;4981599;28;8844;-71
2023/08/17 05:05:17;;;;;;;;;49.00;39.00;;;;;19.94;65.02;99472.44;4988926;28;8875;-72
2023/08/17 05:07:46;;;;;;;;;47.00;39.33;;;;;20.04;64.78;99462.88;5005299;28;8871;-71
2023/08/17 05:10:15;;;;;;;;;37.00;32.00;;;;;20.02;64.83;99466.63;5033232;28;8995;-72
2023/08/17 05:12:44;;;;;;;;;38.40;34.60;;;;;20.09;64.93;99468.81;5036209;28;8864;-79
2023/08/17 05:15:13;;;;;;;;;34.00;32.00;;;;;20.23;64.65;99469.78;5051542;28;8886;-79
2023/08/17 05:17:42;;;;;;;;;37.60;33.20;;;;;20.24;63.51;99472.38;5076239;28;8844;-78
2023/08/17 05:20:14;;;;;;;;;35.20;33.00;;;;;20.04;64.44;99476.22;5091190;28;8843;-77
2023/08/17 05:22:46;;;;;;;;;39.40;34.40;;;;;20.05;64.19;99472.63;5091154;28;8924;-76
2023/08/17 05:25:14;;;;;;;;;39.80;35.80;;;;;20.12;64.69;99472.25;5091396;28;8866;-79
2023/08/17 05:27:45;;;;;;;;;39.20;36.00;;;;;20.18;64.74;99471.84;5091707;28;8852;-78
2023/08/17 05:30:15;;;;;;;;;41.20;36.60;;;;;20.15;64.48;99464.91;5107008;28;8894;-79
2023/08/17 05:32:43;;;;;;;;;38.80;34.80;;;;;20.14;64.49;99473.00;5058008;28;8947;-79
2023/08/17 05:35:13;;;;;;;;;37.60;33.40;;;;;20.17;64.78;99472.81;5092039;28;8823;-79
2023/08/17 05:37:43;;;;;;;;;41.80;35.40;;;;;20.24;64.50;99472.38;5057788;28;8936;-79
2023/08/17 05:40:12;;;;;;;;;40.40;35.20;;;;;20.30;64.23;99473.81;5098806;28;9006;-81
2023/08/17 05:42:41;;;;;;;;;37.40;34.00;;;;;20.36;64.04;99476.06;5053611;28;8848;-78
2023/08/17 05:45:11;;;;;;;;;38.20;34.60;;;;;20.43;64.52;99476.56;5097613;28;8871;-79
2023/08/17 05:47:40;;;;;;;;;36.60;32.40;;;;;20.56;64.65;99472.16;5092296;28;8904;-80
2023/08/17 05:50:09;;;;;;;;;41.80;36.00;;;;;20.69;63.81;99469.56;5096407;28;8861;-78
2023/08/17 05:52:38;;;;;;;;;41.40;35.60;;;;;20.76;63.38;99470.00;5038035;28;9043;-78
2023/08/17 05:55:09;;;;;;;;;44.75;36.50;;;;;20.76;63.33;99475.34;5088598;28;8963;-80
2023/08/17 05:57:38;;;;;;;;;40.00;34.20;;;;;20.85;63.84;99470.25;5088647;28;8834;-77
2023/08/17 06:00:10;;;;;;;;;42.25;36.25;;;;;20.83;63.54;99472.19;5088757;28;8865;-78
2023/08/17 06:02:49;;;;;;;;;40.00;33.60;;;;;20.94;63.90;99479.53;5024668;28;8877;-78
2023/08/17 06:05:21;;;;;;;;;45.25;38.50;;;;;21.01;63.10;99477.31;5088558;28;8874;-78
2023/08/17 06:07:50;;;;;;;;;37.80;34.20;;;;;21.12;63.41;99477.47;5038524;28;8904;-79
2023/08/17 06:10:20;;;;;;;;;37.80;33.80;;;;;21.08;62.64;99465.25;5088809;28;8899;-77
2023/08/17 06:12:49;;;;;;;;;38.25;34.25;;;;;21.08;62.84;99475.09;5088169;28;8834;-78
2023/08/17 06:15:18;;;;;;;;;39.75;35.25;;;;;21.31;63.07;99476.25;5088040;28;8826;-76
2023/08/17 06:17:49;;;;;;;;;32.60;31.40;;;;;21.30;62.68;99485.25;5088483;28;8818;-79
2023/08/17 06:20:21;;;;;;;;;41.00;35.60;;;;;21.36;62.15;99472.28;5052615;28;8930;-79
2023/08/17 06:22:50;;;;;;;;;40.40;36.00;;;;;21.44;62.90;99475.31;5069764;28;8962;-79
2023/08/17 06:25:20;;;;;;;;;32.50;31.25;;;;;21.10;63.66;99481.19;5088507;28;8884;-79
2023/08/17 06:27:50;;;;;;;;;39.00;34.50;;;;;21.35;62.85;99473.28;5089213;28;8864;-78
2023/08/17 06:30:19;;;;;;;;;39.60;34.80;;;;;21.40;62.66;99473.81;5092388;28;9738;-79
2023/08/17 06:32:48;;;;;;;;;40.20;35.40;;;;;21.05;63.73;99476.19;5093364;28;8842;-78
2023/08/17 06:35:17;;;;;;;;;37.20;34.00;;;;;20.44;66.36;99479.16;5104270;28;8862;-78
2023/08/17 06:37:46;;;;;;;;;36.20;32.80;;;;;20.21;67.80;99475.19;5085218;28;8872;-79
2023/08/17 06:40:15;;;;;;;;;37.80;33.40;;;;;20.64;66.19;99477.00;5090239;28;8872;-79
2023/08/17 06:42:45;;;;;;;;;42.75;34.50;;;;;20.94;65.50;99474.19;5092671;28;9024;-78
2023/08/17 06:45:18;;;;;;;;;41.80;34.60;;;;;20.83;64.78;99474.00;5085495;28;8908;-79
2023/08/17 06:47:48;;;;;;;;;46.40;38.40;;;;;20.23;67.32;99473.31;5112468;28;8847;-79
2023/08/17 06:50:17;;;;;;;;;38.40;33.00;;;;;20.90;65.80;99477.13;5076492;28;8886;-79
2023/08/17 06:52:46;;;;;;;;;36.60;32.80;;;;;21.24;64.20;99489.19;5112266;28;8839;-78
2023/08/17 06:55:15;;;;;;;;;43.25;35.75;;;;;21.30;63.38;99488.75;5093870;28;8856;-78
2023/08/17 06:57:46;;;;;;;;;44.25;36.25;;;;;21.12;65.28;99489.97;5112240;28;8855;-79
2023/08/17 07:00:16;;;;;;;;;43.25;37.25;;;;;21.43;63.21;99489.66;5112502;28;8899;-80
2023/08/17 07:02:44;;;;;;;;;45.50;38.00;;;;;21.68;62.79;99492.53;5112745;28;8947;-78
2023/08/17 07:05:22;;;;;;;;;45.50;38.25;;;;;21.55;63.20;99493.31;5109228;28;8940;-78
2023/08/17 07:07:52;;;;;;;;;43.50;37.00;;;;;21.50;63.88;99497.25;5039486;28;8853;-78
2023/08/17 07:10:21;;;;;;;;;42.50;37.00;;;;;21.84;63.05;99499.38;5072969;28;8842;-78
2023/08/17 07:12:52;;;;;;;;;43.00;36.25;;;;;21.67;63.82;99499.66;5091590;28;8873;-78
2023/08/17 07:15:21;;;;;;;;;39.25;35.25;;;;;22.14;62.93;99505.38;5092225;28;8850;-78
2023/08/17 07:17:50;;;;;;;;;42.00;35.75;;;;;22.23;61.52;99502.06;5091406;28;8954;-78
2023/08/17 07:20:18;;;;;;;;;41.75;36.00;;;;;22.57;60.89;99488.97;5090754;28;8974;-78
2023/08/17 07:22:48;;;;;;;;;38.25;35.00;;;;;21.65;63.07;99501.59;5091539;28;8944;-77
2023/08/17 07:25:16;;;;;;;;;42.20;34.60;;;;;22.20;62.50;99507.63;5091465;28;8850;-78
2023/08/17 07:27:45;;;;;;;;;44.00;38.00;;;;;22.59;61.78;99508.47;5097363;28;8834;-77
2023/08/17 07:30:15;;;;;;;;;44.75;38.50;;;;;22.90;61.13;99517.88;5105539;28;8970;-77
2023/08/17 07:32:44;;;;;;;;;44.50;38.00;;;;;22.71;60.46;99515.66;5101259;28;8857;-78
2023/08/17 07:35:13;;;;;;;;;45.75;38.50;;;;;21.81;62.92;99517.47;5092197;28;8862;-78
2023/08/17 07:37:42;;;;;;;;;46.50;39.00;;;;;21.68;63.58;99520.13;5039496;28;9707;-78
2023/08/17 07:40:23;;;;;;;;;45.25;38.00;;;;;21.70;63.42;99520.88;5071569;28;8850;-78
2023/08/17 07:42:52;;;;;;;;;43.50;38.00;;;;;20.91;66.01;99519.78;5090613;28;8848;-78
2023/08/17 07:45:22;;;;;;;;;44.25;38.50;;;;;21.34;64.80;99530.38;5055342;28;8907;-77
2023/08/17 07:47:51;;;;;;;;;40.75;36.25;;;;;21.66;63.64;99530.06;5056101;28;8838;-79
2023/08/17 07:50:21;;;;;;;;;47.25;38.50;;;;;21.03;64.96;99528.84;5090743;28;8883;-78
2023/08/17 07:52:50;;;;;;;;;47.25;39.50;;;;;20.85;66.32;99522.84;5090610;28;8842;-80
2023/08/17 07:55:18;;;;;;;;;42.00;36.25;;;;;21.44;63.78;99519.91;5091067;28;8863;-79
2023/08/17 07:57:47;;;;;;;;;40.60;35.60;;;;;21.78;63.38;99531.91;5090368;28;8834;-80
2023/08/17 08:00:17;;;;;;;;;37.20;32.20;;;;;21.87;62.42;99529.56;5072461;28;8842;-78
2023/08/17 08:02:48;;;;;;;;;36.00;31.80;;;;;22.40;61.07;99530.38;5072042;28;8854;-79
2023/08/17 08:05:17;;;;;;;;;42.40;36.00;;;;;22.37;59.69;99528.78;5090679;28;8878;-80
2023/08/17 08:07:46;;;;;;;;;39.25;35.25;;;;;22.28;59.23;99532.09;5090427;28;8838;-79
2023/08/17 08:10:15;;;;;;;;;38.50;33.75;;;;;21.94;60.47;99525.53;5090301;28;8977;-78
2023/08/17 08:12:44;;;;;;;;;38.00;34.25;;;;;22.37;60.46;99526.09;5072311;28;8837;-78
2023/08/17 08:15:12;;;;;;;;;44.00;38.25;;;;;22.37;60.45;99528.78;5090489;28;9638;-80
2023/08/17 08:17:41;;;;;;;;;43.50;36.00;;;;;22.43;60.69;99527.47;5089898;28;8842;-77
2023/08/17 08:20:12;;;;;;;;;46.50;39.00;;;;;22.47;60.23;99522.72;5090501;28;8995;-80
2023/08/17 08:22:41;;;;;;;;;44.75;37.00;;;;;23.06;59.56;99536.38;5091989;28;8846;-78
2023/08/17 08:25:09;;;;;;;;;41.50;36.50;;;;;23.41;58.20;99532.88;5074689;28;8842;-78
2023/08/17 08:27:38;;;;;;;;;45.50;38.50;;;;;23.29;56.65;99528.44;5090285;28;8862;-79
2023/08/17 08:30:08;;;;;;;;;43.75;36.50;;;;;23.63;56.87;99534.84;5072061;28;8867;-77
2023/08/17 08:32:37;;;;;;;;;40.25;35.75;;;;;23.77;55.83;99540.03;5090194;28;8842;-82
2023/08/17 08:35:07;;;;;;;;;42.00;36.00;;;;;24.11;55.23;99537.41;5037138;28;8865;-78
2023/08/17 08:37:37;;;;;;;;;42.25;36.75;;;;;24.25;55.15;99528.31;5089673;28;8860;-77
2023/08/17 08:40:13;;;;;;;;;44.00;36.50;;;;;24.46;53.78;99539.19;5089978;28;8881;-81
2023/08/17 08:42:42;;;;;;;;;44.25;37.00;;;;;24.51;53.86;99541.50;5072346;28;8838;-78
2023/08/17 08:45:12;;;;;;;;;46.50;39.25;;;;;24.74;53.38;99532.47;5090473;28;8846;-77
2023/08/17 08:47:45;;;;;;;;;41.50;35.50;;;;;24.87;52.77;99534.19;5090400;28;8842;-78
2023/08/17 08:50:20;;;;;;;;;45.75;37.50;;;;;25.04;52.20;99533.66;5090015;28;9669;-78
2023/08/17 08:52:59;;;;;;;;;49.50;40.00;;;;;25.20;51.16;99535.94;5088913;28;9999;-78
2023/08/17 08:55:31;;;;;;;;;45.50;37.75;;;;;25.20;51.58;99527.00;5089470;28;8846;-79
2023/08/17 08:58:01;;;;;;;;;44.75;37.50;;;;;25.30;52.07;99534.22;5036743;28;8814;-77
2023/08/17 09:00:31;;;;;;;;;48.25;39.50;;;;;25.45;50.85;99534.75;5089340;28;8884;-78
2023/08/17 09:03:01;;;;;;;;;42.50;36.75;;;;;25.51;50.68;99523.50;5088780;28;8884;-80
2023/08/17 09:05:34;;;;;;;;;49.75;41.50;;;;;25.67;51.23;99525.75;5089417;28;8866;-78
2023/08/17 09:08:06;;;;;;;;;49.00;41.00;;;;;25.69;49.91;99521.09;5088625;28;8991;-78
2023/08/17 09:10:35;;;;;;;;;52.25;43.25;;;;;25.61;50.15;99523.59;5071303;28;8869;-78
2023/08/17 09:13:07;;;;;;;;;48.00;40.00;;;;;25.75;49.86;99513.47;5089199;28;8846;-79
2023/08/17 09:15:36;;;;;;;;;49.00;41.00;;;;;25.83;48.70;99516.34;5091035;28;8845;-80
2023/08/17 09:18:07;;;;;;;;;52.75;44.00;;;;;25.92;49.61;99512.91;5096200;28;8865;-78
2023/08/17 09:20:41;;;;;;;;;51.25;43.50;;;;;25.88;49.22;99514.13;5092626;28;8999;-78
2023/08/17 09:23:19;;;;;;;;;50.75;43.25;;;;;25.91;50.51;99516.59;5088372;28;8857;-77
2023/08/17 09:25:51;;;;;;;;;51.00;43.00;;;;;26.04;49.76;99508.28;5089217;28;8849;-79
2023/08/17 09:28:21;;;;;;;;;53.75;43.75;;;;;26.20;49.94;99515.91;5088652;28;8854;-78
2023/08/17 09:30:54;;;;;;;;;51.75;42.75;;;;;26.09;49.57;99515.00;5089357;28;9688;-79
2023/08/17 09:33:23;;;;;;;;;54.75;43.75;;;;;26.15;49.81;99518.16;5088951;28;8837;-77
2023/08/17 09:35:53;;;;;;;;;47.25;40.00;;;;;26.19;48.06;99511.50;5070748;28;8837;-80
2023/08/17 09:38:28;;;;;;;;;47.00;39.25;;;;;26.25;47.88;99525.31;5089281;28;8833;-78
2023/08/17 09:40:58;;;;;;;;;50.00;42.75;;;;;26.14;47.50;99517.31;5089389;28;8858;-78
2023/08/17 09:43:28;;;;;;;;;48.00;40.50;;;;;26.09;48.42;99523.06;5089238;28;8834;-78
2023/08/17 09:45:59;;;;;;;;;48.25;41.00;;;;;26.27;48.95;99514.41;5078665;28;8872;-79
2023/08/17 09:48:28;;;;;;;;;47.50;40.00;;;;;26.43;48.49;99508.50;5109054;28;8894;-78
2023/08/17 09:51:01;;;;;;;;;51.25;42.25;;;;;26.38;48.42;99510.75;5108775;28;8855;-78
2023/08/17 09:53:37;;;;;;;;;47.50;40.25;;;;;26.35;48.49;99509.19;5057673;28;8920;-77
2023/08/17 09:56:10;;;;;;;;;44.00;38.25;;;;;26.44;48.33;99515.63;5109299;28;8888;-81
2023/08/17 09:58:45;;;;;;;;;48.00;39.75;;;;;26.57;48.94;99512.69;5109584;28;8852;-78
2023/08/17 10:01:15;;;;;;;;;48.00;40.25;;;;;26.59;48.21;99516.09;5056261;28;8887;-80
2023/08/17 10:03:46;;;;;;;;;42.75;36.25;;;;;26.59;48.95;99505.31;5110692;28;8843;-78
2023/08/17 10:06:19;;;;;;;;;47.75;40.00;;;;;26.53;49.06;99500.47;5094547;28;8854;-79
2023/08/17 10:08:59;;;;;;;;;47.25;39.75;;;;;26.99;47.87;99499.91;5091864;28;8854;-77
2023/08/17 10:11:32;;;;;;;;;43.50;38.00;;;;;27.08;48.63;99497.38;5101797;28;8887;-79
2023/08/17 10:14:06;;;;;;;;;49.00;40.25;;;;;27.24;48.37;99490.44;5046922;28;8881;-80
2023/08/17 10:16:45;;;;;;;;;49.00;41.25;;;;;27.57;47.31;99487.47;5043662;28;8861;-79
2023/08/17 10:19:22;;;;;;;;;49.25;40.50;;;;;27.73;46.32;99484.19;5057573;28;10047;-78
2023/08/17 10:21:57;;;;;;;;;50.25;42.00;;;;;26.68;46.60;99482.94;5056204;28;8877;-79
2023/08/17 10:24:28;;;;;;;;;49.75;42.25;;;;;26.05;50.53;99477.69;5091634;28;8860;-79
2023/08/17 10:26:58;;;;;;;;;49.75;42.25;;;;;25.49;49.23;99476.16;5092329;28;8850;-80
2023/08/17 10:29:28;;;;;;;;;49.75;42.75;;;;;25.13;51.58;99471.03;5092382;28;8822;-78
2023/08/17 10:31:58;;;;;;;;;51.50;43.00;;;;;25.54;50.78;99470.41;5091623;28;8854;-77
2023/08/17 10:34:28;;;;;;;;;49.00;41.50;;;;;25.28;51.47;99468.03;5091161;28;8834;-78
2023/08/17 10:36:59;;;;;;;;;45.50;38.00;;;;;25.86;51.92;99459.56;5039245;28;8885;-77
2023/08/17 10:39:31;;;;;;;;;49.75;41.75;;;;;26.23;50.67;99472.53;5091816;28;8846;-78
2023/08/17 10:42:00;;;;;;;;;52.00;44.00;;;;;24.71;51.94;99462.78;5091647;28;8853;-79
2023/08/17 10:44:40;;;;;;;;;53.50;44.75;;;;;24.21;54.10;99462.38;5091456;28;8850;-79
2023/08/17 10:47:23;;;;;;;;;52.25;43.75;;;;;24.66;52.68;99456.97;5091763;28;8873;-78
2023/08/17 10:49:56;;;;;;;;;45.00;39.00;;;;;25.08;52.54;99457.13;5072282;28;8826;-78
2023/08/17 10:52:30;;;;;;;;;48.00;40.50;;;;;25.51;52.25;99455.34;5091548;28;8920;-79
2023/08/17 10:55:05;;;;;;;;;49.25;42.00;;;;;25.81;50.89;99462.63;5091495;28;8834;-79
2023/08/17 10:57:35;;;;;;;;;48.00;40.50;;;;;26.22;50.34;99457.34;5091515;28;8971;-78
2023/08/17 11:00:24;;;;;;;;;49.50;41.50;;;;;26.71;49.21;99458.41;5091950;28;8845;-79
2023/08/17 11:02:55;;;;;;;;;48.50;40.25;;;;;26.76;48.85;99455.25;5092290;28;8968;-78
2023/08/17 11:05:36;;;;;;;;;52.25;43.50;;;;;27.14;46.94;99449.13;5034628;28;8966;-79
2023/08/17 11:08:06;;;;;;;;;51.25;44.00;;;;;27.00;46.64;99447.63;5024968;28;8937;-78
2023/08/17 11:10:37;;;;;;;;;49.50;42.00;;;;;27.22;46.67;99443.84;5016254;28;8929;-76
2023/08/17 11:13:07;;;;;;;;;49.75;41.75;;;;;27.49;46.41;99444.13;5031381;28;8948;-78
2023/08/17 11:15:42;;;;;;;;;47.75;40.25;;;;;27.67;46.16;99449.66;5047830;28;8858;-77
2023/08/17 11:18:12;;;;;;;;;46.25;39.50;;;;;27.90;45.23;99447.47;5048020;28;8861;-77
2023/08/17 11:20:43;;;;;;;;;46.25;39.75;;;;;27.96;46.27;99444.19;5047917;28;8850;-78
2023/08/17 11:23:12;;;;;;;;;46.25;38.75;;;;;28.27;44.90;99441.25;5047688;28;8842;-79
2023/08/17 11:25:42;;;;;;;;;48.75;41.75;;;;;28.35;44.40;99444.91;5047982;28;8842;-77
2023/08/17 11:28:13;;;;;;;;;47.25;40.25;;;;;28.53;44.42;99444.94;5014651;28;8974;-77
2023/08/17 11:30:43;;;;;;;;;48.75;40.25;;;;;28.69;43.45;99440.78;5048383;28;8948;-78
2023/08/17 11:33:15;;;;;;;;;48.00;41.00;;;;;28.70;42.54;99443.31;5047974;28;9820;-77
2023/08/17 11:36:10;;;;;;;;;50.00;42.00;;;;;28.90;43.75;99437.78;5061132;28;8867;-77
2023/08/17 11:38:40;;;;;;;;;50.00;42.25;;;;;28.84;43.22;99435.69;5090476;28;9613;-77
2023/08/17 11:41:11;;;;;;;;;48.50;41.00;;;;;28.72;42.69;99438.59;5077348;28;8867;-79